Time;durP1;ratioP1;P1;durP2;ratioP2;P2;SDS_P1;SDS_P2;PMS_P1;PMS_P2;Temp;Humidity;BMP_temperature;BMP_pressure;BME280_temperature;BME280_humidity;BME280_pressure;Samples;Min_cycle;Max_cycle;Signal;HPM_P1;HPM_P2
2023/03/29 00:01:05;;;;;;;0.60;0.60;;;;;;;24.14;32.75;99877.66;1918693;73;28060;-41
2023/03/29 00:03:52;;;;;;;0.60;0.60;;;;;;;24.15;32.76;99868.91;1892185;74;28125;-40
2023/03/29 00:06:41;;;;;;;0.60;0.60;;;;;;;24.11;32.81;99874.01;1901170;75;28009;-41
2023/03/29 00:09:31;;;;;;;0.47;0.47;;;;;;;24.14;32.82;99878.20;1904419;73;28141;-40
2023/03/29 00:12:20;;;;;;;0.50;0.50;;;;;;;24.13;32.83;99879.28;1898180;74;28085;-40
2023/03/29 00:15:09;;;;;;;0.50;0.50;;;;;;;24.12;32.82;99871.58;1914883;73;27977;-41
2023/03/29 00:17:58;;;;;;;0.53;0.53;;;;;;;24.12;32.81;99879.81;1888847;75;28022;-40
2023/03/29 00:20:46;;;;;;;1.10;0.70;;;;;;;24.11;32.81;99875.38;1913733;73;28134;-40
2023/03/29 00:23:35;;;;;;;0.50;0.50;;;;;;;24.13;32.84;99879.28;1888940;75;28074;-41
2023/03/29 00:26:23;;;;;;;0.50;0.50;;;;;;;24.14;32.83;99877.66;1924378;73;28057;-40
2023/03/29 00:29:12;;;;;;;0.60;0.60;;;;;;;24.15;32.81;99872.48;1893534;74;28084;-40
2023/03/29 00:32:00;;;;;;;0.50;0.50;;;;;;;24.13;32.83;99871.89;1901179;74;27992;-40
2023/03/29 00:34:49;;;;;;;0.47;0.47;;;;;;;24.15;32.85;99875.77;1900643;75;28188;-40
2023/03/29 00:37:38;;;;;;;0.60;0.60;;;;;;;24.13;32.83;99877.91;1909180;74;28034;-41
2023/03/29 00:40:27;;;;;;;0.80;0.80;;;;;;;24.13;32.87;99878.75;1901569;73;28201;-42
2023/03/29 00:43:16;;;;;;;0.70;0.70;;;;;;;24.13;32.87;99884.77;1890247;74;28150;-40
2023/03/29 00:46:05;;;;;;;0.60;0.55;;;;;;;24.11;32.88;99897.34;1909860;74;28149;-40
2023/03/29 00:48:56;;;;;;;0.65;0.65;;;;;;;24.09;32.94;99889.88;1909920;74;27987;-40
2023/03/29 00:51:46;;;;;;;0.40;0.40;;;;;;;24.09;32.96;99889.88;1910087;73;28167;-40
2023/03/29 00:54:36;;;;;;;0.70;0.70;;;;;;;24.10;32.96;99888.82;1910948;74;28132;-40
2023/03/29 00:57:28;;;;;;;0.60;0.60;;;;;;;24.10;32.97;99873.73;1912165;73;28420;-41
2023/03/29 01:00:19;;;;;;;0.60;0.60;;;;;;;24.11;32.95;99861.66;1918237;73;28058;-41
2023/03/29 01:03:13;;;;;;;0.57;0.57;;;;;;;24.12;32.92;99851.52;1921708;73;28085;-40
2023/03/29 01:06:05;;;;;;;0.70;0.70;;;;;;;24.10;32.92;99842.16;1928994;73;28020;-39
2023/03/29 01:09:02;;;;;;;0.50;0.50;;;;;;;24.08;32.98;99844.31;1926725;73;28036;-40
2023/03/29 01:11:55;;;;;;;0.55;0.55;;;;;;;24.07;32.97;99846.74;1909919;74;28121;-40
2023/03/29 01:14:54;;;;;;;0.50;0.50;;;;;;;24.06;32.99;99847.83;1909918;73;28520;-40
2023/03/29 01:17:48;;;;;;;0.60;0.60;;;;;;;24.07;32.98;99839.88;1910005;74;27973;-40
2023/03/29 01:20:44;;;;;;;0.42;0.42;;;;;;;24.05;33.00;99846.95;1912977;73;28358;-40
2023/03/29 01:23:57;;;;;;;0.50;0.50;;;;;;;24.06;33.00;99843.72;1907430;73;28107;-41
2023/03/29 01:27:04;;;;;;;0.57;0.57;;;;;;;24.04;33.08;99843.90;1910158;73;28014;-40
2023/03/29 01:30:03;;;;;;;0.53;0.53;;;;;;;24.03;33.08;99850.48;1914829;73;28221;-40
2023/03/29 01:32:55;;;;;;;0.60;0.60;;;;;;;24.02;33.13;99849.32;1916631;73;28115;-40
2023/03/29 01:35:47;;;;;;;1.35;0.70;;;;;;;24.01;33.13;99862.76;1926678;73;27969;-40
2023/03/29 01:38:44;;;;;;;0.60;0.60;;;;;;;24.04;33.11;99889.70;1923066;73;28000;-40
2023/03/29 01:41:41;;;;;;;0.40;0.40;;;;;;;24.05;33.17;99922.95;1909784;73;28349;-40
2023/03/29 01:44:35;;;;;;;0.70;0.70;;;;;;;24.06;33.15;99954.87;1835903;76;28216;-40
2023/03/29 01:47:32;;;;;;;0.40;0.40;;;;;;;24.08;33.15;99977.95;1838069;77;28133;-40
2023/03/29 01:50:44;;;;;;;0.50;0.50;;;;;;;24.07;33.22;99984.50;1838076;77;28095;-40
2023/03/29 01:53:41;;;;;;;0.47;0.47;;;;;;;24.05;33.29;99974.58;1837918;77;28251;-41
2023/03/29 01:56:33;;;;;;;0.40;0.40;;;;;;;24.02;33.29;99948.11;1827251;77;28376;-40
2023/03/29 01:59:25;;;;;;;0.62;0.62;;;;;;;24.00;33.37;99937.38;1848740;75;28173;-42
2023/03/29 02:02:15;;;;;;;0.50;0.40;;;;;;;23.95;33.29;99903.47;1862539;76;28267;-40
2023/03/29 02:05:08;;;;;;;0.60;0.60;;;;;;;24.02;33.32;99900.09;1856325;76;28156;-40
2023/03/29 02:07:58;;;;;;;0.50;0.50;;;;;;;24.02;33.36;99898.19;1867154;75;28060;-39
2023/03/29 02:10:47;;;;;;;0.45;0.45;;;;;;;24.02;33.38;99894.59;1876669;75;28160;-40
2023/03/29 02:13:36;;;;;;;0.53;0.53;;;;;;;24.03;33.37;99888.05;1818249;77;28146;-40
2023/03/29 02:16:25;;;;;;;0.60;0.60;;;;;;;24.02;33.39;99881.72;1827650;77;28120;-40
2023/03/29 02:19:14;;;;;;;0.60;0.60;;;;;;;24.04;33.44;99895.20;1827577;77;28403;-40
2023/03/29 02:22:15;;;;;;;0.50;0.50;;;;;;;24.03;33.39;99897.66;1820745;77;28381;-40
2023/03/29 02:25:03;;;;;;;0.40;0.40;;;;;;;24.03;33.48;99885.31;1825811;77;38615;-40
2023/03/29 02:27:53;;;;;;;0.30;0.30;;;;;;;24.04;33.40;99863.64;1839257;77;28194;-40
2023/03/29 02:30:53;;;;;;;0.60;0.60;;;;;;;24.04;33.48;99859.52;1828212;77;28251;-39
2023/03/29 02:33:50;;;;;;;0.40;0.40;;;;;;;24.03;33.40;99855.13;1833145;77;28173;-40
2023/03/29 02:36:42;;;;;;;0.53;0.53;;;;;;;24.00;33.47;99863.29;1832479;76;28200;-40
2023/03/29 02:39:33;;;;;;;0.30;0.30;;;;;;;24.01;33.51;99858.08;1822509;77;28274;-40
2023/03/29 02:42:24;;;;;;;0.70;0.62;;;;;;;23.99;33.52;99847.87;1836845;77;28153;-42
2023/03/29 02:45:16;;;;;;;0.60;0.60;;;;;;;23.99;33.54;99846.51;1846356;76;28224;-40
2023/03/29 02:48:07;;;;;;;0.68;0.68;;;;;;;24.01;33.57;99844.36;1831512;77;28190;-40
2023/03/29 02:50:59;;;;;;;0.53;0.53;;;;;;;23.99;33.60;99834.16;1835017;77;28190;-40
2023/03/29 02:53:50;;;;;;;0.50;0.50;;;;;;;23.98;33.60;99835.25;1820935;77;31127;-40
2023/03/29 02:56:46;;;;;;;0.50;0.50;;;;;;;23.99;33.63;99841.02;1845461;77;28315;-41
2023/03/29 02:59:35;;;;;;;0.70;0.70;;;;;;;23.99;33.61;99831.98;1841625;76;28311;-40
2023/03/29 03:02:28;;;;;;;0.40;0.40;;;;;;;23.99;33.58;99819.06;1856213;75;28170;-40
2023/03/29 03:05:18;;;;;;;0.60;0.60;;;;;;;23.98;33.67;99828.92;1856261;75;28170;-40
2023/03/29 03:08:07;;;;;;;0.50;0.50;;;;;;;23.98;33.70;99837.15;1852856;75;28373;-40
2023/03/29 03:10:56;;;;;;;0.33;0.33;;;;;;;23.98;33.71;99835.25;1844358;75;28226;-41
2023/03/29 03:13:45;;;;;;;0.43;0.43;;;;;;;23.98;33.72;99828.92;1849314;75;28075;-40
2023/03/29 03:16:34;;;;;;;0.50;0.50;;;;;;;23.98;33.69;99828.39;1854058;75;28284;-40
2023/03/29 03:19:23;;;;;;;0.50;0.50;;;;;;;23.98;33.67;99830.29;1854471;77;28140;-41
2023/03/29 03:22:12;;;;;;;0.62;0.62;;;;;;;23.97;33.58;99832.19;1853114;77;28114;-40
2023/03/29 03:25:00;;;;;;;0.50;0.50;;;;;;;23.97;33.60;99822.59;1861497;75;28248;-40
2023/03/29 03:27:50;;;;;;;0.40;0.40;;;;;;;23.98;33.57;99813.30;1856475;75;28250;-40
2023/03/29 03:30:40;;;;;;;0.53;0.53;;;;;;;23.98;33.57;99811.92;1853787;75;28073;-41
2023/03/29 03:33:46;;;;;;;0.57;0.57;;;;;;;23.99;33.60;99808.09;1779811;78;28244;-40
2023/03/29 03:36:49;;;;;;;0.42;0.42;;;;;;;23.96;33.60;99810.48;1853958;75;28087;-40
2023/03/29 03:39:38;;;;;;;0.43;0.43;;;;;;;23.94;33.66;99812.63;1866591;75;28156;-40
2023/03/29 03:42:28;;;;;;;0.40;0.40;;;;;;;23.95;33.60;99812.91;1819311;78;28797;-40
2023/03/29 03:45:18;;;;;;;0.60;0.60;;;;;;;23.96;33.58;99830.53;1826178;77;28138;-41
2023/03/29 03:48:08;;;;;;;0.43;0.43;;;;;;;23.97;33.56;99825.86;1868861;76;28226;-40
2023/03/29 03:51:10;;;;;;;0.62;0.62;;;;;;;23.96;33.57;99814.60;1912887;73;28111;-40
2023/03/29 03:53:59;;;;;;;0.47;0.47;;;;;;;23.96;33.54;99818.72;1922798;73;28081;-40
2023/03/29 03:56:58;;;;;;;0.60;0.60;;;;;;;23.95;33.58;99828.85;1935031;73;28135;-39
2023/03/29 03:59:57;;;;;;;0.37;0.37;;;;;;;23.96;33.51;99834.66;1914055;73;28099;-41
2023/03/29 04:02:49;;;;;;;0.50;0.50;;;;;;;23.96;33.58;99817.34;1920250;74;28122;-40
2023/03/29 04:05:40;;;;;;;0.50;0.50;;;;;;;23.95;33.55;99818.41;1923222;73;28176;-40
2023/03/29 04:08:29;;;;;;;0.30;0.30;;;;;;;23.96;33.63;99818.19;1922038;73;28061;-40
2023/03/29 04:11:28;;;;;;;1.10;0.70;;;;;;;23.95;33.62;99822.52;1929394;73;27977;-40
2023/03/29 04:14:17;;;;;;;0.40;0.40;;;;;;;23.96;33.62;99825.58;1916732;73;28076;-40
2023/03/29 04:17:13;;;;;;;0.50;0.50;;;;;;;23.94;33.65;99831.84;1910785;74;28167;-40
2023/03/29 04:20:11;;;;;;;0.50;0.50;;;;;;;23.93;33.63;99829.62;1913995;74;28162;-39
2023/03/29 04:22:54;;;;;;;0.50;0.50;;;;;;;23.95;33.63;99826.63;1914234;74;28111;-41
2023/03/29 04:25:43;;;;;;;0.57;0.57;;;;;;;23.95;33.62;99824.73;1928605;73;27989;-40
2023/03/29 04:28:34;;;;;;;0.40;0.40;;;;;;;23.95;33.62;99827.48;1907500;73;28170;-40
2023/03/29 04:31:27;;;;;;;0.35;0.35;;;;;;;23.96;33.63;99814.60;1918205;73;28094;-41
2023/03/29 04:34:17;;;;;;;0.40;0.40;;;;;;;23.93;33.63;99809.58;1919091;73;28122;-41
2023/03/29 04:37:08;;;;;;;0.57;0.57;;;;;;;23.95;33.56;99812.91;1925980;73;28016;-41
2023/03/29 04:40:13;;;;;;;0.40;0.40;;;;;;;23.95;33.62;99811.55;1936725;73;28245;-40
2023/03/29 04:42:50;;;;;;;0.60;0.60;;;;;;;23.94;33.63;99812.07;1858343;76;28196;-40
2023/03/29 04:45:39;;;;;;;0.50;0.50;;;;;;;23.93;33.66;99811.79;1930306;73;27982;-40
2023/03/29 04:48:31;;;;;;;0.40;0.40;;;;;;;23.93;33.75;99813.69;1908218;74;28316;-40
2023/03/29 04:51:21;;;;;;;0.70;0.60;;;;;;;23.93;33.66;99813.69;1887448;74;28115;-40
2023/03/29 04:54:11;;;;;;;0.80;0.65;;;;;;;23.94;33.73;99813.44;1896578;74;28060;-40
2023/03/29 04:57:19;;;;;;;0.50;0.50;;;;;;;23.92;33.76;99817.53;1745288;79;38843;-41
2023/03/29 05:00:16;;;;;;;0.30;0.30;;;;;;;23.90;33.76;99804.55;1755840;80;38812;-40
2023/03/29 05:03:22;;;;;;;0.37;0.37;;;;;;;23.91;33.80;99801.59;1893811;74;28111;-41
2023/03/29 05:06:12;;;;;;;0.50;0.50;;;;;;;23.90;33.75;99798.53;1908281;74;28119;-41
2023/03/29 05:09:00;;;;;;;0.40;0.40;;;;;;;23.91;33.75;99796.63;1903152;74;28114;-41
2023/03/29 05:11:53;;;;;;;0.50;0.50;;;;;;;23.91;33.67;99802.13;1904770;74;28150;-43
2023/03/29 05:14:42;;;;;;;0.50;0.50;;;;;;;23.89;33.76;99804.27;1915048;74;27969;-41
2023/03/29 05:17:31;;;;;;;0.47;0.47;;;;;;;23.84;33.52;99798.65;1904323;74;27986;-40
2023/03/29 05:20:21;;;;;;;0.80;0.80;;;;;;;23.84;33.07;99806.88;1913137;74;28101;-40
2023/03/29 05:23:11;;;;;;;1.10;1.10;;;;;;;23.83;32.19;99814.27;1908533;74;28484;-46
2023/03/29 05:26:21;;;;;;;0.85;0.85;;;;;;;23.80;31.30;99804.31;1801508;78;28307;-41
2023/03/29 05:29:11;;;;;;;0.70;0.70;;;;;;;23.70;30.51;99802.66;1795792;77;28206;-40
2023/03/29 05:32:00;;;;;;;0.60;0.60;;;;;;;23.69;30.70;99809.20;1866930;74;32082;-41
2023/03/29 05:34:49;;;;;;;0.60;0.60;;;;;;;23.67;30.97;99809.98;1896614;74;28197;-40
2023/03/29 05:37:38;;;;;;;0.70;0.70;;;;;;;23.68;31.25;99802.91;1890496;74;28013;-42
2023/03/29 05:40:28;;;;;;;0.60;0.60;;;;;;;23.69;31.42;99806.47;1903433;74;27949;-40
2023/03/29 05:43:18;;;;;;;1.30;0.53;;;;;;;23.70;31.71;99810.89;1892018;74;28131;-43
2023/03/29 05:46:08;;;;;;;1.10;0.70;;;;;;;23.71;31.78;99818.06;1910055;74;28497;-43
2023/03/29 05:48:57;;;;;;;0.78;0.75;;;;;;;23.72;31.81;99819.72;1896573;74;28225;-41
2023/03/29 05:51:46;;;;;;;0.50;0.50;;;;;;;23.73;31.90;99811.80;1901237;75;27973;-45
2023/03/29 05:54:35;;;;;;;0.50;0.50;;;;;;;23.74;31.96;99812.93;1888623;74;28140;-41
2023/03/29 05:57:26;;;;;;;0.50;0.50;;;;;;;23.75;31.98;99817.36;1905832;73;28151;-42
2023/03/29 06:00:22;;;;;;;0.60;0.60;;;;;;;23.77;32.04;99812.47;1907020;73;28182;-41
2023/03/29 06:03:10;;;;;;;1.90;0.60;;;;;;;23.79;32.09;99813.59;1890343;74;28169;-43
2023/03/29 06:06:04;;;;;;;0.63;0.63;;;;;;;23.78;32.08;99810.58;1887860;74;28079;-42
2023/03/29 06:08:53;;;;;;;0.60;0.60;;;;;;;23.75;32.35;99807.77;1901354;73;28688;-42
2023/03/29 06:11:43;;;;;;;0.47;0.47;;;;;;;23.74;32.42;99817.58;1897576;73;28193;-40
2023/03/29 06:14:35;;;;;;;0.70;0.60;;;;;;;23.78;32.41;99825.09;1900257;73;28131;-42
2023/03/29 06:17:25;;;;;;;0.60;0.60;;;;;;;23.79;32.51;99828.16;1886976;74;28129;-43
2023/03/29 06:20:14;;;;;;;0.50;0.50;;;;;;;23.78;32.50;99829.22;1903028;74;28101;-41
2023/03/29 06:23:06;;;;;;;0.70;0.70;;;;;;;23.80;32.45;99835.86;1900925;75;28001;-41
2023/03/29 06:25:55;;;;;;;0.70;0.70;;;;;;;23.77;32.69;99831.67;1918683;73;29041;-44
2023/03/29 06:28:44;;;;;;;0.57;0.57;;;;;;;23.74;32.79;99833.50;1900077;73;28181;-50
2023/03/29 06:31:34;;;;;;;1.40;0.50;;;;;;;23.72;33.01;99837.02;1896197;73;28094;-51
2023/03/29 06:34:24;;;;;;;0.50;0.50;;;;;;;23.75;33.27;99842.05;1912930;73;31034;-47
2023/03/29 06:37:14;;;;;;;3.35;0.72;;;;;;;23.74;33.31;99843.11;1901080;75;28107;-48
2023/03/29 06:40:05;;;;;;;1.65;0.50;;;;;;;23.75;33.41;99842.58;1888869;75;28041;-47
2023/03/29 06:42:58;;;;;;;0.60;0.60;;;;;;;23.71;33.62;99838.64;1901094;75;28052;-49
2023/03/29 06:45:58;;;;;;;0.57;0.57;;;;;;;23.69;33.63;99844.34;1904550;73;28166;-49
2023/03/29 06:48:47;;;;;;;0.50;0.50;;;;;;;23.72;33.47;99852.63;1914065;73;28068;-48
2023/03/29 06:51:38;;;;;;;0.55;0.55;;;;;;;23.74;33.46;99849.12;1866177;75;28124;-48
2023/03/29 06:54:27;;;;;;;1.32;0.80;;;;;;;23.73;33.44;99844.72;1898522;74;28200;-46
2023/03/29 06:57:17;;;;;;;0.60;0.60;;;;;;;23.74;33.40;99842.27;1905383;74;28213;-51
2023/03/29 07:00:17;;;;;;;2.10;0.70;;;;;;;23.73;33.41;99845.56;1902482;74;28185;-48
2023/03/29 07:03:22;;;;;;;0.70;0.70;;;;;;;23.74;33.41;99841.73;1905337;74;28136;-49
2023/03/29 07:06:13;;;;;;;0.62;0.62;;;;;;;23.70;33.41;99839.16;1926027;74;28135;-49
2023/03/29 07:09:05;;;;;;;0.57;0.57;;;;;;;23.69;33.46;99829.78;1903195;73;28119;-51
2023/03/29 07:12:03;;;;;;;0.50;0.50;;;;;;;23.69;33.44;99833.36;1894658;74;28048;-48
2023/03/29 07:14:52;;;;;;;0.75;0.55;;;;;;;23.69;33.40;99844.86;1856759;76;30178;-49
2023/03/29 07:17:42;;;;;;;0.70;0.57;;;;;;;23.72;33.39;99852.63;1899058;74;28052;-48
2023/03/29 07:20:33;;;;;;;0.53;0.53;;;;;;;23.72;33.41;99845.25;1908372;74;28087;-50
2023/03/29 07:23:25;;;;;;;0.55;0.55;;;;;;;23.71;33.38;99848.23;1911857;74;28145;-50
2023/03/29 07:26:15;;;;;;;0.78;0.65;;;;;;;23.72;33.39;99858.13;1918832;74;27999;-46
2023/03/29 07:29:03;;;;;;;2.00;0.60;;;;;;;23.73;33.37;99858.44;1903982;74;28158;-49
2023/03/29 07:31:52;;;;;;;0.45;0.45;;;;;;;23.73;33.34;99868.04;1903066;74;28066;-49
2023/03/29 07:34:41;;;;;;;0.50;0.50;;;;;;;23.73;33.32;99867.52;1908918;74;28062;-47
2023/03/29 07:37:36;;;;;;;0.60;0.60;;;;;;;23.73;33.35;99869.41;1912036;74;28049;-47
2023/03/29 07:40:26;;;;;;;0.50;0.50;;;;;;;23.72;33.30;99866.34;1916780;74;28005;-48
2023/03/29 07:43:23;;;;;;;0.70;0.70;;;;;;;23.75;33.28;99868.64;1902086;74;28069;-50
2023/03/29 07:46:11;;;;;;;0.68;0.53;;;;;;;23.73;33.29;99862.55;1917623;74;28115;-49
2023/03/29 07:49:00;;;;;;;1.50;0.60;;;;;;;23.74;33.29;99876.55;1912392;74;28092;-49
2023/03/29 07:51:49;;;;;;;0.40;0.37;;;;;;;23.74;33.31;99877.39;1895011;74;28099;-50
2023/03/29 07:54:38;;;;;;;0.98;0.53;;;;;;;23.75;33.28;99872.75;1908932;73;28026;-49
2023/03/29 07:57:31;;;;;;;0.50;0.50;;;;;;;23.65;33.24;99862.34;1909111;73;28172;-50
2023/03/29 08:00:23;;;;;;;0.35;0.35;;;;;;;23.74;33.27;99874.65;1899956;73;32000;-54
2023/03/29 08:03:13;;;;;;;0.60;0.60;;;;;;;23.76;33.24;99892.23;1865754;75;28169;-49
2023/03/29 08:06:04;;;;;;;0.60;0.50;;;;;;;23.74;33.23;99892.48;1903874;74;28178;-49
2023/03/29 08:08:52;;;;;;;0.40;0.40;;;;;;;23.74;33.28;99889.73;1900680;75;28010;-52
2023/03/29 08:11:41;;;;;;;0.50;0.50;;;;;;;23.74;33.26;99886.15;1879626;75;28081;-49
2023/03/29 08:14:31;;;;;;;0.70;0.70;;;;;;;23.73;33.24;99875.73;1875591;75;28128;-51
2023/03/29 08:17:21;;;;;;;0.80;0.80;;;;;;;23.75;33.26;99881.82;1880814;75;28073;-51
2023/03/29 08:20:13;;;;;;;0.55;0.55;;;;;;;23.75;33.23;99882.35;1894684;74;28095;-51
2023/03/29 08:23:05;;;;;;;0.40;0.40;;;;;;;23.78;33.18;99884.08;1890350;75;28089;-50
2023/03/29 08:25:58;;;;;;;0.60;0.60;;;;;;;23.77;33.19;99884.32;1876511;75;28138;-48
2023/03/29 08:28:47;;;;;;;0.60;0.60;;;;;;;23.76;33.20;99877.99;1897171;75;28191;-49
2023/03/29 08:31:36;;;;;;;0.50;0.50;;;;;;;23.77;33.19;99879.68;1900750;74;28081;-47
2023/03/29 08:34:24;;;;;;;0.42;0.42;;;;;;;23.76;33.19;99872.50;1880024;74;27995;-48
2023/03/29 08:37:18;;;;;;;0.50;0.50;;;;;;;23.77;33.18;99878.31;1871562;75;32008;-49
2023/03/29 08:40:12;;;;;;;0.40;0.40;;;;;;;23.79;33.12;99878.91;1890091;74;28438;-46
2023/03/29 08:43:28;;;;;;;0.40;0.40;;;;;;;23.79;33.12;99868.46;1875252;75;28142;-51
2023/03/29 08:46:48;;;;;;;1.07;0.40;;;;;;;23.75;33.17;99865.89;1893779;74;28155;-49
2023/03/29 08:49:47;;;;;;;0.42;0.42;;;;;;;23.74;33.18;99861.46;1871992;75;28077;-51
2023/03/29 08:52:42;;;;;;;0.50;0.50;;;;;;;23.72;33.19;99864.98;1893943;74;28116;-47
2023/03/29 08:55:44;;;;;;;0.50;0.50;;;;;;;23.74;33.20;99871.06;1906995;74;28153;-51
2023/03/29 08:58:41;;;;;;;0.30;0.30;;;;;;;23.73;33.20;99866.14;1845183;74;28316;-47
2023/03/29 09:01:34;;;;;;;0.40;0.40;;;;;;;23.75;33.16;99865.89;1899835;74;28267;-47
2023/03/29 09:04:29;;;;;;;0.90;0.70;;;;;;;23.75;33.21;99865.89;1902426;74;31015;-48
2023/03/29 09:07:25;;;;;;;0.78;0.60;;;;;;;23.75;33.17;99857.66;1853914;74;28123;-49
2023/03/29 09:10:17;;;;;;;0.40;0.40;;;;;;;23.76;33.17;99852.46;1881357;74;28240;-49
2023/03/29 09:13:16;;;;;;;0.75;0.50;;;;;;;23.77;33.15;99856.36;1904161;74;28593;-51
2023/03/29 09:16:07;;;;;;;0.45;0.45;;;;;;;23.79;33.14;99868.46;1902300;74;28170;-52
2023/03/29 09:19:13;;;;;;;0.53;0.53;;;;;;;23.79;33.11;99862.98;1906454;74;28051;-51
2023/03/29 09:22:08;;;;;;;0.60;0.60;;;;;;;23.80;33.10;99858.65;1906959;74;28052;-48
2023/03/29 09:25:34;;;;;;;0.40;0.40;;;;;;;23.80;33.11;99855.06;1910782;74;28118;-49
2023/03/29 09:28:29;;;;;;;0.50;0.50;;;;;;;23.79;33.12;99845.98;1884053;74;28149;-48
2023/03/29 09:31:21;;;;;;;0.47;0.47;;;;;;;23.76;33.17;99855.20;1901086;74;28123;-50
2023/03/29 09:34:16;;;;;;;0.50;0.50;;;;;;;23.78;33.17;99847.61;1891775;74;28098;-47
2023/03/29 09:37:24;;;;;;;0.50;0.50;;;;;;;23.80;33.13;99842.19;1889306;74;28196;-47
2023/03/29 09:40:19;;;;;;;0.50;0.50;;;;;;;23.79;33.12;99845.98;1905302;74;28124;-52
2023/03/29 09:43:12;;;;;;;0.60;0.40;;;;;;;23.80;33.10;99844.09;1889356;74;28040;-50
2023/03/29 09:46:04;;;;;;;0.40;0.40;;;;;;;23.81;33.10;99836.98;1878715;74;27981;-47
2023/03/29 09:48:56;;;;;;;1.00;0.47;;;;;;;23.83;33.08;99832.63;1900508;74;31160;-52
2023/03/29 09:51:46;;;;;;;0.60;0.43;;;;;;;23.82;33.08;99822.21;1901264;74;28275;-51
2023/03/29 09:54:35;;;;;;;0.40;0.40;;;;;;;23.84;33.05;99815.95;1890924;74;29084;-50
2023/03/29 09:57:42;;;;;;;0.50;0.50;;;;;;;23.85;33.04;99822.28;1890384;75;28202;-46
2023/03/29 10:00:32;;;;;;;1.72;0.50;;;;;;;23.84;33.00;99810.99;1879578;75;28137;-50
2023/03/29 10:03:23;;;;;;;0.50;0.50;;;;;;;23.83;33.03;99806.03;1882777;75;28131;-54
2023/03/29 10:06:14;;;;;;;0.60;0.40;;;;;;;23.84;33.05;99803.61;1878285;75;28579;-48
2023/03/29 10:09:05;;;;;;;0.40;0.40;;;;;;;23.88;33.01;99802.58;1896583;75;28108;-51
2023/03/29 10:12:00;;;;;;;0.30;0.30;;;;;;;23.86;33.00;99806.10;1894396;75;28130;-49
2023/03/29 10:14:54;;;;;;;0.50;0.50;;;;;;;23.84;33.02;99807.72;1888274;75;28052;-47
2023/03/29 10:17:44;;;;;;;0.30;0.30;;;;;;;23.86;33.01;99812.96;1883339;75;28138;-47
2023/03/29 10:20:37;;;;;;;0.50;0.50;;;;;;;23.86;33.03;99803.36;1892083;75;28221;-48
2023/03/29 10:23:28;;;;;;;0.37;0.37;;;;;;;23.85;33.04;99809.94;1868406;75;28356;-49
2023/03/29 10:26:25;;;;;;;0.90;0.42;;;;;;;23.84;33.03;99806.34;1868147;76;28185;-48
2023/03/29 10:29:15;;;;;;;0.82;0.60;;;;;;;23.85;33.05;99805.82;1868626;76;28062;-52
2023/03/29 10:32:16;;;;;;;0.50;0.40;;;;;;;23.86;33.04;99802.83;1880182;75;28122;-51
2023/03/29 10:35:10;;;;;;;0.40;0.40;;;;;;;23.87;33.03;99800.93;1895416;75;28146;-47
2023/03/29 10:38:00;;;;;;;0.60;0.40;;;;;;;23.85;33.04;99801.14;1870198;75;28249;-46
2023/03/29 10:40:51;;;;;;;1.35;0.40;;;;;;;23.86;33.01;99800.09;1895657;75;28064;-49
2023/03/29 10:43:48;;;;;;;0.60;0.50;;;;;;;23.88;33.05;99794.34;1895160;75;28123;-48
2023/03/29 10:46:43;;;;;;;0.30;0.30;;;;;;;23.91;33.00;99789.77;1892575;75;38400;-49
2023/03/29 10:49:33;;;;;;;0.50;0.50;;;;;;;23.89;33.02;99780.95;1897548;75;28127;-50
2023/03/29 10:52:22;;;;;;;0.45;0.40;;;;;;;23.90;32.98;99774.37;1878614;75;28159;-46
2023/03/29 10:55:13;;;;;;;1.07;0.43;;;;;;;23.88;33.00;99768.28;1887331;75;28084;-51
2023/03/29 10:58:17;;;;;;;0.40;0.40;;;;;;;23.88;33.01;99767.76;1894829;75;28138;-50
2023/03/29 11:01:07;;;;;;;0.62;0.62;;;;;;;23.90;32.96;99753.27;1895309;75;28104;-50
2023/03/29 11:04:01;;;;;;;0.42;0.42;;;;;;;23.88;33.00;99753.20;1899945;75;28111;-49
2023/03/29 11:07:01;;;;;;;0.35;0.35;;;;;;;23.89;32.98;99748.02;1896218;75;28067;-50
2023/03/29 11:10:18;;;;;;;0.80;0.40;;;;;;;23.87;33.01;99746.06;1887130;75;28100;-48
2023/03/29 11:13:27;;;;;;;0.43;0.43;;;;;;;23.87;33.01;99747.43;1888329;75;28096;-49
2023/03/29 11:16:37;;;;;;;0.55;0.55;;;;;;;23.85;33.06;99765.48;1888454;75;28138;-51
2023/03/29 11:19:43;;;;;;;0.30;0.30;;;;;;;23.85;33.06;99763.30;1868641;76;28179;-46
2023/03/29 11:22:41;;;;;;;0.50;0.50;;;;;;;23.83;33.10;99759.92;1856306;77;28149;-50
2023/03/29 11:25:32;;;;;;;0.40;0.40;;;;;;;23.85;33.12;99753.70;1868753;76;28155;-48
2023/03/29 11:28:27;;;;;;;0.42;0.42;;;;;;;23.84;33.08;99736.92;1878562;75;28177;-53
2023/03/29 11:31:19;;;;;;;0.50;0.50;;;;;;;23.85;33.08;99741.34;1895394;75;28112;-45
2023/03/29 11:34:16;;;;;;;0.30;0.30;;;;;;;23.86;33.08;99742.47;1881937;75;28129;-47
2023/03/29 11:37:28;;;;;;;0.40;0.40;;;;;;;23.86;33.04;99726.54;1857015;77;28060;-47
2023/03/29 11:40:30;;;;;;;0.40;0.40;;;;;;;23.86;33.05;99721.89;1867106;76;28218;-53
2023/03/29 11:43:25;;;;;;;0.40;0.40;;;;;;;23.84;33.06;99708.95;1869111;76;28191;-47
2023/03/29 11:46:51;;;;;;;0.50;0.50;;;;;;;23.86;33.05;99712.83;1856954;77;28234;-49
2023/03/29 11:49:57;;;;;;;0.40;0.40;;;;;;;23.86;33.06;99717.78;1881615;75;28155;-46
2023/03/29 11:52:55;;;;;;;0.35;0.35;;;;;;;23.84;33.10;99706.74;1894028;75;28211;-48
2023/03/29 11:55:44;;;;;;;0.55;0.55;;;;;;;23.83;33.10;99700.41;1872190;75;28229;-52
2023/03/29 11:58:36;;;;;;;0.50;0.50;;;;;;;23.86;33.06;99701.32;1899009;75;28424;-52
2023/03/29 12:01:30;;;;;;;0.60;0.60;;;;;;;23.89;33.03;99701.38;1875115;76;28178;-51
2023/03/29 12:04:21;;;;;;;0.40;0.40;;;;;;;23.91;33.00;99700.61;1909613;74;28131;-48
2023/03/29 12:07:13;;;;;;;0.60;0.60;;;;;;;23.91;32.99;99697.33;1906111;74;28411;-46
2023/03/29 12:10:07;;;;;;;0.40;0.40;;;;;;;23.92;32.96;99694.05;1876955;76;28206;-49
2023/03/29 12:13:00;;;;;;;0.50;0.50;;;;;;;23.92;32.95;99679.78;1894486;74;28217;-47
2023/03/29 12:15:54;;;;;;;0.45;0.45;;;;;;;23.94;32.92;99674.88;1889624;74;28153;-49
2023/03/29 12:18:48;;;;;;;1.20;0.70;;;;;;;23.92;32.95;99667.43;1902938;74;28102;-48
2023/03/29 12:21:37;;;;;;;0.40;0.40;;;;;;;23.93;32.94;99667.74;1908522;74;28110;-49
2023/03/29 12:24:29;;;;;;;0.50;0.50;;;;;;;23.95;32.93;99661.47;1896419;74;28080;-51
2023/03/29 12:27:30;;;;;;;0.50;0.50;;;;;;;23.94;32.90;99657.61;1877908;76;28106;-49
2023/03/29 12:30:27;;;;;;;0.40;0.40;;;;;;;23.94;32.90;99658.42;1877956;76;28085;-49
2023/03/29 12:33:36;;;;;;;0.50;0.50;;;;;;;23.94;32.90;99644.70;1900041;74;28269;-48
2023/03/29 12:36:44;;;;;;;0.30;0.30;;;;;;;23.93;32.91;99636.19;1876781;75;28150;-48
2023/03/29 12:39:37;;;;;;;0.40;0.40;;;;;;;23.92;32.95;99632.33;1867874;75;28111;-48
2023/03/29 12:42:49;;;;;;;0.65;0.33;;;;;;;23.91;32.95;99624.62;1904574;75;28063;-50
2023/03/29 12:45:50;;;;;;;0.20;0.20;;;;;;;23.91;32.97;99617.77;1902888;75;28079;-47
2023/03/29 12:48:42;;;;;;;0.50;0.50;;;;;;;23.90;32.97;99616.61;1902115;75;28092;-51
2023/03/29 12:51:33;;;;;;;0.90;0.60;;;;;;;23.94;32.94;99611.77;1877787;76;28135;-49
2023/03/29 12:54:24;;;;;;;0.40;0.40;;;;;;;23.94;32.92;99606.84;1883260;74;28485;-49
2023/03/29 12:57:21;;;;;;;0.40;0.40;;;;;;;23.95;32.90;99597.52;1886697;74;28121;-51
2023/03/29 13:00:19;;;;;;;0.40;0.40;;;;;;;23.95;32.89;99596.16;1911130;74;28102;-52
2023/03/29 13:03:19;;;;;;;0.50;0.50;;;;;;;23.96;32.90;99596.47;1890289;74;28089;-47
2023/03/29 13:06:11;;;;;;;0.47;0.43;;;;;;;23.95;32.90;99590.66;1855288;76;28053;-47
2023/03/29 13:09:21;;;;;;;0.33;0.33;;;;;;;23.94;32.91;99585.70;1897923;74;28187;-48
2023/03/29 13:12:16;;;;;;;0.37;0.37;;;;;;;23.95;32.93;99587.39;1897199;74;28057;-48
2023/03/29 13:15:19;;;;;;;0.40;0.40;;;;;;;23.93;32.90;99579.94;1872372;74;28366;-49
2023/03/29 13:18:34;;;;;;;0.30;0.30;;;;;;;23.95;32.90;99575.05;1884108;74;28057;-49
2023/03/29 13:21:48;;;;;;;0.30;0.30;;;;;;;23.96;32.93;99563.54;1843335;77;28273;-49
2023/03/29 13:24:51;;;;;;;0.30;0.30;;;;;;;23.94;32.91;99551.41;1886932;74;28075;-46
2023/03/29 13:27:48;;;;;;;0.42;0.42;;;;;;;23.93;32.96;99544.80;1855596;76;28069;-47
2023/03/29 13:30:48;;;;;;;0.40;0.40;;;;;;;23.93;32.96;99539.31;1857968;76;28617;-48
2023/03/29 13:33:40;;;;;;;0.40;0.40;;;;;;;23.94;32.94;99534.14;1854354;76;28185;-49
2023/03/29 13:36:46;;;;;;;0.23;0.23;;;;;;;23.93;32.95;99526.44;1899457;74;28408;-48
2023/03/29 13:39:36;;;;;;;0.50;0.42;;;;;;;23.95;32.95;99528.40;1898629;74;28063;-50